createdAt,value
2017-09-27T00:02:10.585Z,17.73
2017-09-27T00:04:38.059Z,18.23
2017-09-27T00:07:05.552Z,15.30
2017-09-27T00:09:33.053Z,17.10
2017-09-27T00:12:00.537Z,16.53
2017-09-27T00:14:28.009Z,18.60
2017-09-27T00:16:55.509Z,17.67
2017-09-27T00:19:22.985Z,16.87
2017-09-27T00:21:50.481Z,14.03
2017-09-27T00:24:18.002Z,19.43
2017-09-27T00:26:45.479Z,18.70
2017-09-27T00:29:13.034Z,17.20
2017-09-27T00:31:40.516Z,20.60
2017-09-27T00:34:08.034Z,16.23
2017-09-27T00:36:35.537Z,14.50
2017-09-27T00:39:03.029Z,12.70
2017-09-27T00:41:30.517Z,17.50
2017-09-27T00:43:58.008Z,14.53
2017-09-27T00:46:25.485Z,14.83
2017-09-27T00:48:52.941Z,15.70
2017-09-27T00:51:20.440Z,16.50
2017-09-27T00:53:47.909Z,17.40
2017-09-27T00:56:15.403Z,11.87
2017-09-27T00:58:42.885Z,14.40
2017-09-27T01:01:10.366Z,15.63
2017-09-27T01:03:37.835Z,14.70
2017-09-27T01:06:05.326Z,11.80
2017-09-27T01:08:32.821Z,13.00
2017-09-27T01:11:01.157Z,15.03
2017-09-27T01:13:28.709Z,13.40
2017-09-27T01:15:56.179Z,13.20
2017-09-27T01:18:23.673Z,13.13
2017-09-27T01:20:51.146Z,13.50
2017-09-27T01:23:18.637Z,13.57
2017-09-27T01:25:46.095Z,12.57
2017-09-27T01:28:13.574Z,12.60
2017-09-27T01:30:41.101Z,15.60
2017-09-27T01:33:08.554Z,13.93
2017-09-27T01:35:36.109Z,14.13
2017-09-27T01:38:03.572Z,12.43
2017-09-27T01:40:31.060Z,13.00
2017-09-27T01:42:58.545Z,16.90
2017-09-27T01:45:26.035Z,13.43
2017-09-27T01:47:53.537Z,12.90
2017-09-27T01:50:21.021Z,13.73
2017-09-27T01:52:48.543Z,12.83
2017-09-27T01:55:16.005Z,13.80
2017-09-27T01:57:43.484Z,13.40
2017-09-27T02:00:10.929Z,15.57
2017-09-27T02:02:38.437Z,20.37
2017-09-27T02:05:05.900Z,15.43
2017-09-27T02:07:33.399Z,14.40
2017-09-27T02:10:00.912Z,12.87
2017-09-27T02:12:28.403Z,15.60
2017-09-27T02:14:55.911Z,15.93
2017-09-27T02:17:23.369Z,12.73
2017-09-27T02:19:50.965Z,14.17
2017-09-27T02:22:18.452Z,17.77
2017-09-27T02:24:45.912Z,16.50
2017-09-27T02:27:13.416Z,15.67
2017-09-27T02:29:40.868Z,13.60
2017-09-27T02:32:08.345Z,17.47
2017-09-27T02:34:35.835Z,15.63
2017-09-27T02:37:03.352Z,14.20
2017-09-27T02:39:30.821Z,15.40
2017-09-27T02:41:58.297Z,14.87
2017-09-27T02:44:25.760Z,13.90
2017-09-27T02:46:53.247Z,14.93
2017-09-27T02:49:20.737Z,16.70
2017-09-27T02:51:48.208Z,19.50
2017-09-27T02:54:15.704Z,18.17
2017-09-27T02:56:43.184Z,14.60
2017-09-27T02:59:10.681Z,15.53
2017-09-27T03:01:38.172Z,16.20
2017-09-27T03:04:05.685Z,15.97
2017-09-27T03:06:33.169Z,15.77
2017-09-27T03:09:00.646Z,18.00
2017-09-27T03:11:28.116Z,16.33
2017-09-27T03:13:55.720Z,16.87
2017-09-27T03:16:23.201Z,18.33
2017-09-27T03:18:50.689Z,18.53
2017-09-27T03:21:18.196Z,20.53
2017-09-27T03:23:45.677Z,26.53
2017-09-27T03:26:13.174Z,28.60
2017-09-27T03:28:40.649Z,25.20
2017-09-27T03:31:08.130Z,32.90
2017-09-27T03:33:35.625Z,67.90
2017-09-27T03:36:03.430Z,61.17
2017-09-27T03:38:30.896Z,43.37
2017-09-27T03:40:58.410Z,30.80
2017-09-27T03:43:25.944Z,39.07
2017-09-27T03:45:53.457Z,29.73
2017-09-27T03:48:20.983Z,26.30
2017-09-27T03:50:48.432Z,29.07
2017-09-27T03:53:15.946Z,35.00
2017-09-27T03:55:43.439Z,30.00
2017-09-27T03:58:10.941Z,38.23
2017-09-27T04:00:38.412Z,38.13
2017-09-27T04:03:05.894Z,36.60
2017-09-27T04:05:33.393Z,42.10
2017-09-27T04:08:00.852Z,82.80
2017-09-27T04:10:28.337Z,53.10
2017-09-27T04:12:55.798Z,70.67
2017-09-27T04:15:23.300Z,85.97
2017-09-27T04:17:50.764Z,58.07
2017-09-27T04:20:18.273Z,51.47
2017-09-27T04:22:45.736Z,40.60
2017-09-27T04:25:13.233Z,62.93
2017-09-27T04:27:40.698Z,43.93
2017-09-27T04:30:08.207Z,59.40
2017-09-27T04:32:35.720Z,49.53
2017-09-27T04:35:03.175Z,30.70
2017-09-27T04:37:30.652Z,49.63
2017-09-27T04:39:58.137Z,53.20
2017-09-27T04:42:25.629Z,93.90
2017-09-27T04:44:53.093Z,72.90
2017-09-27T04:47:20.595Z,54.33
2017-09-27T04:49:48.061Z,44.30
2017-09-27T04:52:15.569Z,42.27
2017-09-27T04:54:43.048Z,62.47
2017-09-27T04:57:10.541Z,48.70
2017-09-27T04:59:37.996Z,88.37
2017-09-27T05:02:05.492Z,51.10
2017-09-27T05:04:33.000Z,43.37
2017-09-27T05:07:00.504Z,41.10
2017-09-27T05:09:27.998Z,59.33
2017-09-27T05:11:55.449Z,68.67
2017-09-27T05:14:22.988Z,63.37
2017-09-27T05:16:50.454Z,101.03
2017-09-27T05:19:17.960Z,55.13
2017-09-27T05:21:45.464Z,73.90
2017-09-27T05:24:12.977Z,52.73
2017-09-27T05:26:40.450Z,38.57
2017-09-27T05:29:07.958Z,38.37
2017-09-27T05:31:35.457Z,56.13
2017-09-27T05:34:02.963Z,46.43
2017-09-27T05:36:30.488Z,50.57
2017-09-27T05:38:58.019Z,44.63
2017-09-27T05:41:25.496Z,62.73
2017-09-27T05:43:53.007Z,27.53
2017-09-27T05:46:20.477Z,23.10
2017-09-27T05:48:47.973Z,32.20
2017-09-27T05:51:15.533Z,34.93
2017-09-27T05:53:43.023Z,24.47
2017-09-27T05:56:10.528Z,24.23
2017-09-27T05:58:38.042Z,18.10
2017-09-27T06:01:05.525Z,20.93
2017-09-27T06:03:33.059Z,21.93
2017-09-27T06:06:00.548Z,20.20
2017-09-27T06:08:28.027Z,19.77
2017-09-27T06:10:55.565Z,24.60
2017-09-27T06:13:23.048Z,22.67
2017-09-27T06:15:50.613Z,18.70
2017-09-27T06:18:18.097Z,19.90
2017-09-27T06:20:45.598Z,21.40
2017-09-27T06:23:13.073Z,21.00
2017-09-27T06:25:40.581Z,24.57
2017-09-27T06:28:08.073Z,23.53
2017-09-27T06:30:35.566Z,28.37
2017-09-27T06:33:03.061Z,31.20
2017-09-27T06:35:30.671Z,27.97
2017-09-27T06:37:58.158Z,35.50
2017-09-27T06:40:25.660Z,43.10
2017-09-27T06:42:53.136Z,28.97
2017-09-27T06:45:20.662Z,38.30
2017-09-27T06:47:48.141Z,41.70
2017-09-27T06:50:15.629Z,40.67
2017-09-27T06:52:43.089Z,51.80
2017-09-27T06:55:10.561Z,56.30
2017-09-27T06:57:38.280Z,45.30
2017-09-27T07:00:05.762Z,60.90
2017-09-27T07:02:33.257Z,36.30
2017-09-27T07:05:00.741Z,33.23
2017-09-27T07:07:28.233Z,36.20
2017-09-27T07:09:55.697Z,30.60
2017-09-27T07:12:23.183Z,34.07
2017-09-27T07:14:50.681Z,31.40
2017-09-27T07:17:18.219Z,34.27
2017-09-27T07:19:45.739Z,29.20
2017-09-27T07:22:13.213Z,32.47
2017-09-27T07:24:40.705Z,29.13
2017-09-27T07:27:08.181Z,30.97
2017-09-27T07:29:35.820Z,34.47
2017-09-27T07:32:03.292Z,30.80
2017-09-27T07:34:30.819Z,31.83
2017-09-27T07:36:58.356Z,37.40
2017-09-27T07:39:25.831Z,31.20
2017-09-27T07:41:53.324Z,33.53
2017-09-27T07:44:20.806Z,33.70
2017-09-27T07:46:48.345Z,36.03
2017-09-27T07:49:15.883Z,35.50
2017-09-27T07:51:43.468Z,36.97
2017-09-27T07:54:10.989Z,54.93
2017-09-27T07:56:38.456Z,41.40
2017-09-27T07:59:06.153Z,34.80
2017-09-27T08:01:33.638Z,32.63
2017-09-27T08:04:03.889Z,30.93
2017-09-27T08:06:31.407Z,26.63
2017-09-27T08:08:59.828Z,31.50
2017-09-27T08:11:27.333Z,32.27
2017-09-27T08:13:54.902Z,27.03
2017-09-27T08:16:22.436Z,26.70
2017-09-27T08:18:49.935Z,32.00
2017-09-27T08:21:17.444Z,32.03
2017-09-27T08:23:44.926Z,30.90
2017-09-27T08:26:13.479Z,36.27
2017-09-27T08:28:40.950Z,38.50
2017-09-27T08:31:08.450Z,33.23
2017-09-27T08:33:35.974Z,33.50
2017-09-27T08:36:03.513Z,34.57
2017-09-27T08:38:31.003Z,33.80
2017-09-27T08:40:58.503Z,36.40
2017-09-27T08:43:26.042Z,31.43
2017-09-27T08:45:53.516Z,33.33
2017-09-27T08:48:21.029Z,39.20
2017-09-27T08:50:48.582Z,36.90
2017-09-27T08:53:16.284Z,35.30
2017-09-27T08:55:43.771Z,34.90
2017-09-27T08:58:11.274Z,42.87
2017-09-27T09:00:38.777Z,38.67
2017-09-27T09:03:06.286Z,39.00
2017-09-27T09:05:33.761Z,42.30
2017-09-27T09:08:01.325Z,38.50
2017-09-27T09:10:28.824Z,34.40
2017-09-27T09:12:56.299Z,40.63
2017-09-27T09:15:23.800Z,38.47
2017-09-27T09:17:51.267Z,45.73
2017-09-27T09:20:18.817Z,38.20
2017-09-27T09:22:46.292Z,45.80
2017-09-27T09:25:13.812Z,40.63
2017-09-27T09:27:41.286Z,41.53
2017-09-27T09:30:08.789Z,45.43
2017-09-27T09:32:36.297Z,50.53
2017-09-27T09:35:04.434Z,56.40
2017-09-27T09:37:31.961Z,48.87
2017-09-27T09:39:59.467Z,45.20
2017-09-27T09:42:26.992Z,41.43
2017-09-27T09:44:54.483Z,37.20
2017-09-27T09:47:22.006Z,38.90
2017-09-27T09:49:49.476Z,38.43
2017-09-27T09:52:16.968Z,37.50
2017-09-27T09:54:44.476Z,42.53
2017-09-27T09:57:11.980Z,39.70
2017-09-27T09:59:39.481Z,44.60
2017-09-27T10:02:07.014Z,45.60
2017-09-27T10:04:34.559Z,35.70
2017-09-27T10:07:02.247Z,40.03
2017-09-27T10:09:29.987Z,38.73
2017-09-27T10:11:57.515Z,34.40
2017-09-27T10:14:24.994Z,48.90
2017-09-27T10:16:52.540Z,41.30
2017-09-27T10:19:20.038Z,36.50
2017-09-27T10:21:47.600Z,33.87
2017-09-27T10:24:15.261Z,40.87
2017-09-27T10:26:42.782Z,32.13
2017-09-27T10:29:10.273Z,36.07
2017-09-27T10:31:38.765Z,37.27
2017-09-27T10:34:06.297Z,38.23
2017-09-27T10:36:33.768Z,36.80
2017-09-27T10:39:01.263Z,36.83
2017-09-27T10:41:28.720Z,32.47
2017-09-27T10:43:56.264Z,31.70
2017-09-27T10:46:23.741Z,34.20
2017-09-27T10:48:51.431Z,33.17
2017-09-27T10:51:18.919Z,30.57
2017-09-27T10:53:46.397Z,29.23
2017-09-27T10:56:13.887Z,29.13
2017-09-27T10:58:41.341Z,29.53
2017-09-27T11:01:08.831Z,29.10
2017-09-27T11:03:36.374Z,29.27
2017-09-27T11:06:03.862Z,29.97
2017-09-27T11:08:31.331Z,33.13
2017-09-27T11:10:58.825Z,30.80
2017-09-27T11:13:26.313Z,28.67
2017-09-27T11:15:53.969Z,25.07
2017-09-27T11:18:21.459Z,26.93
2017-09-27T11:20:48.927Z,30.00
2017-09-27T11:23:16.475Z,29.93
2017-09-27T11:25:44.089Z,27.30
2017-09-27T11:28:11.636Z,25.23
2017-09-27T11:30:39.114Z,23.13
2017-09-27T11:33:06.633Z,26.33
2017-09-27T11:35:34.137Z,24.80
2017-09-27T11:38:01.670Z,27.53
2017-09-27T11:40:29.166Z,23.97
2017-09-27T11:42:56.659Z,20.07
2017-09-27T11:45:24.161Z,26.00
2017-09-27T11:47:51.663Z,22.23
2017-09-27T11:50:19.845Z,20.80
2017-09-27T11:52:48.390Z,19.60
2017-09-27T11:55:15.994Z,18.30
2017-09-27T11:57:43.520Z,19.77
2017-09-27T12:00:11.072Z,21.83
2017-09-27T12:02:38.592Z,19.03
2017-09-27T12:05:06.112Z,19.90
2017-09-27T12:07:33.637Z,19.60
2017-09-27T12:10:01.109Z,17.90
2017-09-27T12:12:28.607Z,18.63
2017-09-27T12:14:56.085Z,23.70
2017-09-27T12:17:23.581Z,16.50
2017-09-27T12:19:51.075Z,27.53
2017-09-27T12:22:18.909Z,16.10
2017-09-27T12:24:46.417Z,29.00
2017-09-27T12:27:13.891Z,14.20
2017-09-27T12:29:41.392Z,24.50
2017-09-27T12:32:08.874Z,17.37
2017-09-27T12:34:36.374Z,16.97
2017-09-27T12:37:03.838Z,12.83
2017-09-27T12:39:32.129Z,15.47
2017-09-27T12:41:59.606Z,11.90
2017-09-27T12:44:27.128Z,22.07
2017-09-27T12:46:54.589Z,13.70
2017-09-27T12:49:22.072Z,12.63
2017-09-27T12:51:49.542Z,12.33
2017-09-27T12:54:17.033Z,12.70
2017-09-27T12:56:44.530Z,14.30
2017-09-27T12:59:12.058Z,18.37
2017-09-27T13:01:39.581Z,12.90
2017-09-27T13:04:07.061Z,13.50
2017-09-27T13:06:34.580Z,11.77
2017-09-27T13:09:02.062Z,11.17
2017-09-27T13:11:29.585Z,15.63
2017-09-27T13:13:57.087Z,17.40
2017-09-27T13:16:24.591Z,17.37
2017-09-27T13:18:52.110Z,12.20
2017-09-27T13:21:19.570Z,14.70
2017-09-27T13:23:47.076Z,12.57
2017-09-27T13:26:14.596Z,12.03
2017-09-27T13:28:42.114Z,10.87
2017-09-27T13:31:09.606Z,11.30
2017-09-27T13:33:37.097Z,12.73
2017-09-27T13:36:04.654Z,11.70
2017-09-27T13:38:32.191Z,11.93
2017-09-27T13:40:59.680Z,11.00
2017-09-27T13:43:27.186Z,11.70
2017-09-27T13:45:54.749Z,11.87
2017-09-27T13:48:22.214Z,10.37
2017-09-27T13:50:49.742Z,14.63
2017-09-27T13:53:17.258Z,17.60
2017-09-27T13:55:44.719Z,16.70
2017-09-27T13:58:12.230Z,11.73
2017-09-27T14:00:39.726Z,12.73
2017-09-27T14:03:07.256Z,11.67
2017-09-27T14:05:34.757Z,10.20
2017-09-27T14:08:02.245Z,12.70
2017-09-27T14:10:29.710Z,15.30
2017-09-27T14:12:57.237Z,11.30
2017-09-27T14:15:24.698Z,12.17
2017-09-27T14:17:52.207Z,12.03
2017-09-27T14:20:19.691Z,10.90
2017-09-27T14:22:47.188Z,17.93
2017-09-27T14:25:14.694Z,9.73
2017-09-27T14:27:42.185Z,12.57
2017-09-27T14:30:09.673Z,11.40
2017-09-27T14:32:37.149Z,10.40
2017-09-27T14:35:04.655Z,10.70
2017-09-27T14:37:32.127Z,12.37
2017-09-27T14:39:59.637Z,9.70
2017-09-27T14:42:27.126Z,12.43
2017-09-27T14:44:54.631Z,10.63
2017-09-27T14:47:22.099Z,10.03
2017-09-27T14:49:49.601Z,11.27
2017-09-27T14:52:17.123Z,10.83
2017-09-27T14:54:44.601Z,10.17
2017-09-27T14:57:12.188Z,9.73
2017-09-27T14:59:39.741Z,12.63
2017-09-27T15:02:07.250Z,10.53
2017-09-27T15:04:34.762Z,11.27
2017-09-27T15:07:03.089Z,10.90
2017-09-27T15:09:30.566Z,14.90
2017-09-27T15:11:58.092Z,12.50
2017-09-27T15:14:25.562Z,10.90
2017-09-27T15:16:53.497Z,8.90
2017-09-27T15:19:21.309Z,11.93
2017-09-27T15:21:48.805Z,9.60
2017-09-27T15:24:16.342Z,11.67
2017-09-27T15:26:43.861Z,10.80
2017-09-27T15:29:11.347Z,9.23
2017-09-27T15:31:38.809Z,10.10
2017-09-27T15:34:06.336Z,10.63
2017-09-27T15:36:33.859Z,10.10
2017-09-27T15:39:01.375Z,10.33
2017-09-27T15:41:28.921Z,10.67
2017-09-27T15:43:56.473Z,11.37
2017-09-27T15:46:23.950Z,9.80
2017-09-27T15:48:51.462Z,12.80
2017-09-27T15:51:18.973Z,11.53
2017-09-27T15:53:46.470Z,10.43
2017-09-27T15:56:13.976Z,10.40
2017-09-27T15:58:41.480Z,10.00
2017-09-27T16:01:08.981Z,11.50
2017-09-27T16:03:36.510Z,14.00
2017-09-27T16:06:04.059Z,13.83
2017-09-27T16:08:31.604Z,20.43
2017-09-27T16:10:59.084Z,16.67
2017-09-27T16:13:26.594Z,16.30
2017-09-27T16:15:54.058Z,20.77
2017-09-27T16:18:21.570Z,14.90
2017-09-27T16:20:49.047Z,19.27
2017-09-27T16:23:16.543Z,15.60
2017-09-27T16:25:44.017Z,20.87
2017-09-27T16:28:11.516Z,16.00
2017-09-27T16:30:39.012Z,16.13
2017-09-27T16:33:06.491Z,14.27
2017-09-27T16:35:33.994Z,15.60
2017-09-27T16:38:01.491Z,17.73
2017-09-27T16:40:29.000Z,16.93
2017-09-27T16:42:56.484Z,19.50
2017-09-27T16:45:23.987Z,12.53
2017-09-27T16:47:51.475Z,13.97
2017-09-27T16:50:18.975Z,14.20
2017-09-27T16:52:46.486Z,14.33
2017-09-27T16:55:13.945Z,13.07
2017-09-27T16:57:41.425Z,11.97
2017-09-27T17:00:08.885Z,12.33
2017-09-27T17:02:36.754Z,11.83
2017-09-27T17:05:04.256Z,11.87
2017-09-27T17:07:31.761Z,14.13
2017-09-27T17:10:00.041Z,17.43
2017-09-27T17:12:27.521Z,11.90
2017-09-27T17:14:55.145Z,12.53
2017-09-27T17:17:23.164Z,15.43
2017-09-27T17:19:50.664Z,17.33
2017-09-27T17:22:18.148Z,12.83
2017-09-27T17:24:45.632Z,12.17
2017-09-27T17:27:13.117Z,12.43
2017-09-27T17:29:40.625Z,12.57
2017-09-27T17:32:08.106Z,15.83
2017-09-27T17:34:35.619Z,18.13
2017-09-27T17:37:03.117Z,12.90
2017-09-27T17:39:30.593Z,22.27
2017-09-27T17:41:58.058Z,12.20
2017-09-27T17:44:25.557Z,15.70
2017-09-27T17:46:53.044Z,12.97
2017-09-27T17:49:20.537Z,12.80
2017-09-27T17:51:48.029Z,13.83
2017-09-27T17:54:15.521Z,19.50
2017-09-27T17:56:43.027Z,15.80
2017-09-27T17:59:11.432Z,11.93
2017-09-27T18:01:38.936Z,11.73
2017-09-27T18:07:16.078Z,17.63
2017-09-27T18:09:49.169Z,11.60
2017-09-27T18:12:23.103Z,13.30
2017-09-27T18:14:56.235Z,13.43
2017-09-27T18:17:25.613Z,13.87
2017-09-27T18:19:53.084Z,13.53
2017-09-27T18:22:20.579Z,12.43
2017-09-27T18:24:48.159Z,17.93
2017-09-27T18:27:15.640Z,15.07
2017-09-27T18:29:43.121Z,17.20
2017-09-27T18:32:10.661Z,13.73
2017-09-27T18:34:38.159Z,17.83
2017-09-27T18:37:05.629Z,18.53
2017-09-27T18:39:33.140Z,15.10
2017-09-27T18:42:00.641Z,16.20
2017-09-27T18:44:28.962Z,14.77
2017-09-27T18:46:57.262Z,19.13
2017-09-27T18:49:24.756Z,13.33
2017-09-27T18:51:52.248Z,14.60
2017-09-27T18:54:19.710Z,13.60
2017-09-27T18:56:47.245Z,13.53
2017-09-27T18:59:14.744Z,16.43
2017-09-27T19:01:42.257Z,15.67
2017-09-27T19:04:09.741Z,12.40
2017-09-27T19:06:37.236Z,12.80
2017-09-27T19:09:04.750Z,15.73
2017-09-27T19:11:32.262Z,12.93
2017-09-27T19:13:59.794Z,15.63
2017-09-27T19:16:27.276Z,13.13
2017-09-27T19:18:54.817Z,11.40
2017-09-27T19:21:22.305Z,17.67
2017-09-27T19:23:49.805Z,13.30
2017-09-27T19:26:17.277Z,12.37
2017-09-27T19:28:44.820Z,12.13
2017-09-27T19:31:12.345Z,13.83
2017-09-27T19:33:39.816Z,15.23
2017-09-27T19:36:07.333Z,13.30
2017-09-27T19:38:35.477Z,13.10
2017-09-27T19:41:03.007Z,16.03
2017-09-27T19:43:30.470Z,14.00
2017-09-27T19:45:57.982Z,26.50
2017-09-27T19:48:25.450Z,49.63
2017-09-27T19:50:52.973Z,17.07
2017-09-27T19:53:20.750Z,13.60
2017-09-27T19:55:48.230Z,13.80
2017-09-27T19:58:15.809Z,18.43
2017-09-27T20:00:43.298Z,15.57
2017-09-27T20:03:10.815Z,14.40
2017-09-27T20:05:38.289Z,14.83
2017-09-27T20:08:05.795Z,17.40
2017-09-27T20:10:33.313Z,13.27
2017-09-27T20:13:00.829Z,19.53
2017-09-27T20:15:28.338Z,14.40
2017-09-27T20:17:55.863Z,15.30
2017-09-27T20:20:23.386Z,15.97
2017-09-27T20:22:50.921Z,15.10
2017-09-27T20:25:18.408Z,18.23
2017-09-27T20:27:45.958Z,14.60
2017-09-27T20:30:13.489Z,13.83
2017-09-27T20:32:40.958Z,13.40
2017-09-27T20:35:08.476Z,13.30
2017-09-27T20:37:35.950Z,15.37
2017-09-27T20:40:03.476Z,14.20
2017-09-27T20:42:30.958Z,20.40
2017-09-27T20:44:58.691Z,23.60
2017-09-27T20:47:26.200Z,45.70
2017-09-27T20:49:53.719Z,16.60
2017-09-27T20:52:21.189Z,15.33
2017-09-27T20:54:49.082Z,16.10
2017-09-27T20:57:16.571Z,15.07
2017-09-27T20:59:44.070Z,15.23
2017-09-27T21:02:11.564Z,15.53
2017-09-27T21:04:39.031Z,15.23
2017-09-27T21:07:06.543Z,16.37
2017-09-27T21:09:34.024Z,15.80
2017-09-27T21:12:01.501Z,13.33
2017-09-27T21:14:29.032Z,20.30
2017-09-27T21:16:56.534Z,13.10
2017-09-27T21:19:24.003Z,12.23
2017-09-27T21:21:51.506Z,16.57
2017-09-27T21:24:19.015Z,16.87
2017-09-27T21:26:46.512Z,12.83
2017-09-27T21:29:14.011Z,14.43
2017-09-27T21:31:41.499Z,15.43
2017-09-27T21:34:09.006Z,20.00
2017-09-27T21:36:36.493Z,16.07
2017-09-27T21:39:04.014Z,13.50
2017-09-27T21:41:31.491Z,14.90
2017-09-27T21:43:58.990Z,15.47
2017-09-27T21:46:26.502Z,16.17
2017-09-27T21:48:54.006Z,13.77
2017-09-27T21:51:21.552Z,15.33
2017-09-27T21:53:49.053Z,13.27
2017-09-27T21:56:16.511Z,18.23
2017-09-27T21:58:44.014Z,12.77
2017-09-27T22:01:11.488Z,16.13
2017-09-27T22:03:38.989Z,12.90
2017-09-27T22:06:06.456Z,18.77
2017-09-27T22:08:33.949Z,17.30
2017-09-27T22:11:01.422Z,17.63
2017-09-27T22:13:28.914Z,15.63
2017-09-27T22:15:56.412Z,17.20
2017-09-27T22:18:23.904Z,12.70
2017-09-27T22:20:51.434Z,16.10
2017-09-27T22:23:18.954Z,13.20
2017-09-27T22:25:46.432Z,14.73
2017-09-27T22:28:13.912Z,12.80
2017-09-27T22:30:41.409Z,19.63
2017-09-27T22:33:08.881Z,14.03
2017-09-27T22:35:36.387Z,14.07
2017-09-27T22:38:03.884Z,14.63
2017-09-27T22:40:31.380Z,14.60
2017-09-27T22:42:58.836Z,16.20
2017-09-27T22:45:26.358Z,13.77
2017-09-27T22:47:53.854Z,13.67
2017-09-27T22:50:21.326Z,13.63
2017-09-27T22:52:48.844Z,13.33
2017-09-27T22:55:16.322Z,17.27
2017-09-27T22:57:43.828Z,14.63
2017-09-27T23:00:11.323Z,17.60
2017-09-27T23:02:38.809Z,15.03
2017-09-27T23:05:06.298Z,16.43
2017-09-27T23:07:33.808Z,15.87
2017-09-27T23:10:01.314Z,14.47
2017-09-27T23:12:28.774Z,15.37
2017-09-27T23:14:56.265Z,12.03
2017-09-27T23:17:26.577Z,14.30
2017-09-27T23:19:54.069Z,12.20
2017-09-27T23:22:33.373Z,14.07
2017-09-27T23:25:00.905Z,12.53
2017-09-27T23:27:28.409Z,14.47
2017-09-27T23:29:55.902Z,15.87
2017-09-27T23:32:23.398Z,16.37
2017-09-27T23:34:50.886Z,12.90
2017-09-27T23:37:18.368Z,14.27
2017-09-27T23:39:45.834Z,14.80
2017-09-27T23:42:13.336Z,14.13
2017-09-27T23:44:40.798Z,14.03
2017-09-27T23:47:08.283Z,15.60
2017-09-27T23:49:35.738Z,16.30
2017-09-27T23:52:03.291Z,14.80
2017-09-27T23:54:30.816Z,15.73
2017-09-27T23:56:58.304Z,15.77
2017-09-27T23:59:25.789Z,19.43
